createdAt,value
2018-12-11T12:14:09.743Z,92.67
2018-12-11T12:19:24.270Z,90.10
2018-12-11T12:22:24.633Z,93.07
2018-12-11T12:25:17.385Z,93.73
2018-12-11T12:28:19.395Z,93.10
2018-12-11T12:31:10.284Z,91.27
2018-12-11T12:34:01.741Z,93.03
2018-12-11T12:36:55.428Z,94.23
2018-12-11T12:39:44.187Z,93.70
2018-12-11T12:42:33.042Z,94.00
2018-12-11T12:45:24.616Z,95.20
2018-12-11T12:48:12.721Z,97.43
2018-12-11T12:51:03.407Z,108.12
2018-12-11T12:53:53.470Z,96.43
2018-12-11T12:56:41.337Z,98.47
2018-12-11T12:59:29.631Z,96.17
2018-12-11T13:02:19.088Z,96.97
2018-12-11T13:05:09.228Z,97.60
2018-12-11T13:07:59.573Z,100.23
2018-12-11T13:10:49.394Z,106.00
2018-12-11T13:13:39.734Z,113.70
2018-12-11T13:16:28.452Z,117.77
2018-12-11T13:19:19.692Z,122.23
2018-12-11T13:22:14.738Z,127.47
2018-12-11T13:25:03.753Z,129.00
2018-12-11T13:27:53.027Z,131.07
2018-12-11T13:30:44.369Z,133.30
2018-12-11T13:33:32.490Z,153.00
2018-12-11T13:36:22.988Z,141.57
2018-12-11T13:39:13.002Z,147.57
2018-12-11T13:42:05.181Z,149.37
2018-12-11T13:44:55.129Z,167.45
2018-12-11T13:47:44.799Z,153.93
2018-12-11T13:50:34.678Z,149.95
2018-12-11T13:53:22.975Z,145.38
2018-12-11T13:56:12.957Z,149.77
2018-12-11T13:59:02.127Z,146.93
2018-12-11T14:01:50.583Z,143.60
2018-12-11T14:04:38.760Z,147.70
2018-12-11T14:07:28.798Z,142.60
2018-12-11T14:10:18.786Z,141.03
2018-12-11T14:13:19.280Z,144.47
2018-12-11T14:16:07.230Z,146.40
2018-12-11T14:18:56.735Z,139.10
2018-12-11T14:21:48.244Z,143.00
2018-12-11T14:24:36.744Z,140.97
2018-12-11T14:27:25.855Z,137.73
2018-12-11T14:30:15.483Z,138.30
2018-12-11T14:33:03.264Z,136.07
2018-12-11T14:35:53.927Z,137.27
2018-12-11T14:38:41.660Z,135.53
2018-12-11T14:41:30.458Z,138.67
2018-12-11T14:44:18.744Z,134.20
2018-12-11T14:47:06.785Z,134.47
2018-12-11T14:49:55.267Z,135.37
2018-12-11T14:52:43.786Z,134.10
2018-12-11T14:55:32.247Z,131.00
2018-12-11T14:58:21.589Z,129.73
2018-12-11T15:01:10.383Z,129.83
2018-12-11T15:03:58.432Z,129.20
2018-12-11T15:06:47.405Z,131.33
2018-12-11T15:09:40.017Z,130.73
2018-12-11T15:12:27.601Z,126.40
2018-12-11T15:15:18.037Z,126.90
2018-12-11T15:18:08.275Z,125.90
2018-12-11T15:20:56.408Z,128.07
2018-12-11T15:23:44.512Z,123.50
2018-12-11T15:26:33.164Z,122.27
2018-12-11T15:29:22.984Z,125.60
2018-12-11T15:32:10.816Z,125.97
2018-12-11T15:35:00.671Z,123.13
2018-12-11T15:37:51.759Z,125.37
2018-12-11T15:40:40.337Z,123.03
2018-12-11T15:43:28.975Z,121.07
2018-12-11T15:46:18.097Z,125.10
2018-12-11T15:49:07.878Z,128.43
2018-12-11T15:51:56.860Z,123.03
2018-12-11T15:54:45.956Z,123.50
2018-12-11T15:57:34.507Z,118.37
2018-12-11T16:00:29.995Z,120.87
2018-12-11T16:03:19.010Z,122.83
2018-12-11T16:06:07.180Z,120.73
2018-12-11T16:08:56.760Z,122.53
2018-12-11T16:11:45.865Z,126.47
2018-12-11T16:14:36.361Z,122.30
2018-12-11T16:17:24.556Z,118.73
2018-12-11T16:20:14.058Z,121.73
2018-12-11T16:23:04.657Z,115.10
2018-12-11T16:25:53.176Z,121.07
2018-12-11T16:28:44.071Z,117.97
2018-12-11T16:31:32.109Z,115.93
2018-12-11T16:34:21.164Z,117.53
2018-12-11T16:37:10.039Z,119.73
2018-12-11T16:40:04.414Z,119.40
2018-12-11T16:42:51.400Z,122.03
2018-12-11T16:45:40.616Z,115.20
2018-12-11T16:48:29.492Z,114.35
2018-12-11T16:51:19.433Z,117.57
2018-12-11T16:54:08.517Z,114.83
2018-12-11T16:56:57.662Z,118.07
2018-12-11T16:59:46.612Z,115.97
2018-12-11T17:02:35.470Z,115.87
2018-12-11T17:05:23.942Z,112.53
2018-12-11T17:08:14.515Z,112.33
2018-12-11T17:11:02.810Z,116.00
2018-12-11T17:13:51.841Z,116.90
2018-12-11T17:16:40.577Z,114.40
2018-12-11T17:19:29.850Z,114.17
2018-12-11T17:22:19.026Z,109.57
2018-12-11T17:25:08.291Z,109.10
2018-12-11T17:27:56.661Z,111.40
2018-12-11T17:30:45.859Z,113.73
2018-12-11T17:33:34.967Z,111.43
2018-12-11T17:36:23.921Z,118.67
2018-12-11T17:39:12.721Z,118.93
2018-12-11T17:42:02.454Z,114.13
2018-12-11T17:44:51.166Z,108.80
2018-12-11T17:47:40.024Z,105.67
2018-12-11T17:50:29.036Z,111.80
2018-12-11T17:53:18.664Z,110.33
2018-12-11T17:56:06.263Z,110.97
2018-12-11T17:58:59.197Z,105.90
2018-12-11T18:01:49.334Z,111.27
2018-12-11T18:04:39.167Z,118.70
2018-12-11T18:07:28.125Z,115.47
2018-12-11T18:10:16.571Z,110.10
2018-12-11T18:13:05.136Z,113.70
2018-12-11T18:15:53.676Z,117.03
2018-12-11T18:18:41.714Z,118.23
2018-12-11T18:21:29.548Z,115.33
2018-12-11T18:24:17.519Z,117.87
2018-12-11T18:27:06.347Z,109.23
2018-12-11T18:29:54.488Z,112.33
2018-12-11T18:32:42.799Z,110.60
2018-12-11T18:35:33.326Z,120.13
2018-12-11T18:38:21.782Z,115.80
2018-12-11T18:41:10.507Z,106.17
2018-12-11T18:43:59.089Z,112.43
2018-12-11T18:46:47.751Z,113.23
2018-12-11T18:49:36.610Z,108.30
2018-12-11T18:52:24.750Z,107.65
2018-12-11T18:55:13.295Z,110.40
2018-12-11T18:58:01.432Z,120.63
2018-12-11T19:00:49.684Z,122.83
2018-12-11T19:03:38.755Z,109.87
2018-12-11T19:06:27.191Z,110.23
2018-12-11T19:09:16.972Z,116.67
2018-12-11T19:12:05.202Z,109.20
2018-12-11T19:14:54.123Z,115.13
2018-12-11T19:17:42.214Z,116.07
2018-12-11T19:20:32.417Z,110.83
2018-12-11T19:23:28.869Z,114.40
2018-12-11T19:26:17.267Z,108.27
2018-12-11T19:29:05.742Z,110.63
2018-12-11T19:31:56.151Z,107.37
2018-12-11T19:34:44.258Z,108.10
2018-12-11T19:37:36.832Z,112.23
2018-12-11T19:40:26.326Z,114.63
2018-12-11T19:43:15.900Z,110.63
2018-12-11T19:46:03.490Z,110.60
2018-12-11T19:48:51.582Z,107.90
2018-12-11T19:51:39.604Z,108.43
2018-12-11T19:54:27.420Z,105.80
2018-12-11T19:57:16.264Z,112.00
2018-12-11T20:00:04.627Z,109.20
2018-12-11T20:02:54.199Z,111.40
2018-12-11T20:05:42.901Z,105.73
2018-12-11T20:08:31.877Z,103.17
2018-12-11T20:11:20.673Z,108.03
2018-12-11T20:14:09.286Z,108.80
2018-12-11T20:16:58.695Z,109.53
2018-12-11T20:19:50.824Z,104.87
2018-12-11T20:22:39.383Z,109.40
2018-12-11T20:25:27.345Z,101.50
2018-12-11T20:28:16.482Z,108.40
2018-12-11T20:31:04.335Z,103.90
2018-12-11T20:33:55.118Z,102.57
2018-12-11T20:36:44.527Z,104.50
2018-12-11T20:39:32.617Z,101.93
2018-12-11T20:42:21.279Z,102.70
2018-12-11T20:45:09.946Z,102.93
2018-12-11T20:47:58.295Z,98.63
2018-12-11T20:50:45.816Z,99.77
2018-12-11T20:53:36.624Z,101.10
2018-12-11T20:56:24.587Z,99.37
2018-12-11T20:59:12.782Z,99.23
2018-12-11T21:02:01.519Z,98.53
2018-12-11T21:04:50.268Z,103.80
2018-12-11T21:07:38.927Z,100.53
2018-12-11T21:10:27.833Z,101.20
2018-12-11T21:13:16.051Z,110.70
2018-12-11T21:16:04.012Z,101.17
2018-12-11T21:18:51.741Z,105.03
2018-12-11T21:21:40.301Z,107.80
2018-12-11T21:24:30.394Z,103.40
2018-12-11T21:27:18.604Z,111.47
2018-12-11T21:30:06.986Z,108.27
2018-12-11T21:32:54.882Z,107.87
2018-12-11T21:35:43.184Z,109.60
2018-12-11T21:38:31.704Z,101.90
2018-12-11T21:41:20.465Z,106.03
2018-12-11T21:44:09.072Z,107.37
2018-12-11T21:46:58.386Z,107.33
2018-12-11T21:49:46.750Z,105.40
2018-12-11T21:52:34.501Z,103.57
2018-12-11T21:55:22.292Z,107.27
2018-12-11T21:58:11.491Z,104.43
2018-12-11T22:01:00.799Z,101.40
2018-12-11T22:03:48.734Z,102.47
2018-12-11T22:06:37.429Z,99.53
2018-12-11T22:09:24.976Z,102.40
2018-12-11T22:12:14.708Z,104.33
2018-12-11T22:15:02.778Z,101.37
2018-12-11T22:17:51.155Z,99.93
2018-12-11T22:20:39.438Z,100.17
2018-12-11T22:23:27.459Z,101.37
2018-12-11T22:26:16.072Z,105.50
2018-12-11T22:29:05.028Z,99.87
2018-12-11T22:31:53.582Z,97.07
2018-12-11T22:34:43.561Z,105.83
2018-12-11T22:37:31.955Z,103.50
2018-12-11T22:40:20.090Z,97.43
2018-12-11T22:43:09.618Z,100.50
2018-12-11T22:45:59.303Z,99.07
2018-12-11T22:48:50.545Z,97.97
2018-12-11T22:51:40.433Z,96.80
2018-12-11T22:54:30.215Z,97.20
2018-12-11T22:57:18.459Z,103.20
2018-12-11T23:00:07.665Z,101.50
2018-12-11T23:02:56.861Z,99.13
2018-12-11T23:05:46.023Z,99.53
2018-12-11T23:08:35.128Z,99.83
2018-12-11T23:11:23.616Z,97.60
2018-12-11T23:14:13.746Z,101.47
2018-12-11T23:17:02.293Z,98.23
2018-12-11T23:22:25.288Z,102.43
2018-12-11T23:25:14.006Z,101.47
2018-12-11T23:28:03.067Z,98.97
2018-12-11T23:30:52.924Z,99.17
2018-12-11T23:33:41.911Z,96.33
2018-12-11T23:36:31.063Z,93.67
2018-12-11T23:39:19.320Z,94.10
2018-12-11T23:42:08.503Z,97.53
2018-12-11T23:44:57.160Z,92.57
2018-12-11T23:47:46.307Z,102.73
2018-12-11T23:50:34.869Z,96.47
2018-12-11T23:53:23.317Z,101.00
2018-12-11T23:56:12.151Z,98.57
2018-12-11T23:59:00.414Z,94.40
